sensor_id;sensor_type;location;lat;lon;timestamp;P1;durP1;ratioP1;P2;durP2;ratioP2
31786;SDS011;18356;52.380;9.820;2022-12-29T00:01:37;4.60;;;2.27;;
31786;SDS011;18356;52.380;9.820;2022-12-29T00:04:04;4.50;;;1.70;;
31786;SDS011;18356;52.380;9.820;2022-12-29T00:06:30;4.83;;;1.70;;
31786;SDS011;18356;52.380;9.820;2022-12-29T00:08:56;3.53;;;1.60;;
31786;SDS011;18356;52.380;9.820;2022-12-29T00:11:23;3.60;;;1.73;;
31786;SDS011;18356;52.380;9.820;2022-12-29T00:13:50;5.10;;;1.60;;
31786;SDS011;18356;52.380;9.820;2022-12-29T00:16:35;3.93;;;1.73;;
31786;SDS011;18356;52.380;9.820;2022-12-29T00:19:01;5.50;;;1.70;;
31786;SDS011;18356;52.380;9.820;2022-12-29T00:21:28;6.50;;;1.73;;
31786;SDS011;18356;52.380;9.820;2022-12-29T00:24:20;3.80;;;1.57;;
31786;SDS011;18356;52.380;9.820;2022-12-29T00:27:25;3.27;;;1.47;;
31786;SDS011;18356;52.380;9.820;2022-12-29T00:30:04;7.83;;;1.70;;
31786;SDS011;18356;52.380;9.820;2022-12-29T00:32:49;4.60;;;1.63;;
31786;SDS011;18356;52.380;9.820;2022-12-29T00:35:34;2.70;;;1.50;;
31786;SDS011;18356;52.380;9.820;2022-12-29T00:38:03;5.47;;;1.47;;
31786;SDS011;18356;52.380;9.820;2022-12-29T00:40:50;2.67;;;1.40;;
31786;SDS011;18356;52.380;9.820;2022-12-29T00:43:35;5.20;;;1.40;;
31786;SDS011;18356;52.380;9.820;2022-12-29T00:46:19;3.23;;;1.30;;
31786;SDS011;18356;52.380;9.820;2022-12-29T00:48:46;3.57;;;1.33;;
31786;SDS011;18356;52.380;9.820;2022-12-29T00:51:30;3.10;;;1.30;;
31786;SDS011;18356;52.380;9.820;2022-12-29T00:53:56;2.53;;;1.30;;
31786;SDS011;18356;52.380;9.820;2022-12-29T00:56:22;2.30;;;1.20;;
31786;SDS011;18356;52.380;9.820;2022-12-29T00:58:48;3.90;;;1.40;;
31786;SDS011;18356;52.380;9.820;2022-12-29T01:01:14;3.13;;;1.50;;
31786;SDS011;18356;52.380;9.820;2022-12-29T01:03:40;2.37;;;1.20;;
31786;SDS011;18356;52.380;9.820;2022-12-29T01:06:07;2.80;;;1.20;;
31786;SDS011;18356;52.380;9.820;2022-12-29T01:08:34;2.37;;;1.20;;
31786;SDS011;18356;52.380;9.820;2022-12-29T01:11:01;3.77;;;1.50;;
31786;SDS011;18356;52.380;9.820;2022-12-29T01:13:27;3.20;;;1.20;;
31786;SDS011;18356;52.380;9.820;2022-12-29T01:15:53;3.93;;;1.40;;
31786;SDS011;18356;52.380;9.820;2022-12-29T01:18:19;9.20;;;1.60;;
31786;SDS011;18356;52.380;9.820;2022-12-29T01:20:45;3.27;;;1.07;;
31786;SDS011;18356;52.380;9.820;2022-12-29T01:23:11;3.50;;;1.37;;
31786;SDS011;18356;52.380;9.820;2022-12-29T01:25:37;2.07;;;1.17;;
31786;SDS011;18356;52.380;9.820;2022-12-29T01:28:03;3.07;;;1.20;;
31786;SDS011;18356;52.380;9.820;2022-12-29T01:30:29;3.23;;;1.37;;
31786;SDS011;18356;52.380;9.820;2022-12-29T01:32:55;4.43;;;1.50;;
31786;SDS011;18356;52.380;9.820;2022-12-29T01:35:21;2.60;;;1.30;;
31786;SDS011;18356;52.380;9.820;2022-12-29T01:37:47;2.93;;;1.20;;
31786;SDS011;18356;52.380;9.820;2022-12-29T01:40:13;3.07;;;1.30;;
31786;SDS011;18356;52.380;9.820;2022-12-29T01:42:39;4.00;;;1.33;;
31786;SDS011;18356;52.380;9.820;2022-12-29T01:45:12;4.17;;;1.27;;
31786;SDS011;18356;52.380;9.820;2022-12-29T01:47:40;2.13;;;1.20;;
31786;SDS011;18356;52.380;9.820;2022-12-29T01:52:36;3.13;;;1.33;;
31786;SDS011;18356;52.380;9.820;2022-12-29T01:55:04;4.00;;;1.53;;
31786;SDS011;18356;52.380;9.820;2022-12-29T01:57:32;3.40;;;1.40;;
31786;SDS011;18356;52.380;9.820;2022-12-29T02:00:08;3.63;;;1.37;;
31786;SDS011;18356;52.380;9.820;2022-12-29T02:02:35;3.93;;;1.40;;
31786;SDS011;18356;52.380;9.820;2022-12-29T02:05:04;3.57;;;1.30;;
31786;SDS011;18356;52.380;9.820;2022-12-29T02:07:31;5.60;;;1.37;;
31786;SDS011;18356;52.380;9.820;2022-12-29T02:09:57;5.07;;;4.20;;
31786;SDS011;18356;52.380;9.820;2022-12-29T02:12:24;3.60;;;1.30;;
31786;SDS011;18356;52.380;9.820;2022-12-29T02:14:51;5.90;;;1.10;;
31786;SDS011;18356;52.380;9.820;2022-12-29T02:22:44;3.30;;;1.30;;
31786;SDS011;18356;52.380;9.820;2022-12-29T02:30:57;1.70;;;0.90;;
31786;SDS011;18356;52.380;9.820;2022-12-29T02:38:49;3.10;;;1.30;;
31786;SDS011;18356;52.380;9.820;2022-12-29T02:43:49;2.27;;;1.23;;
31786;SDS011;18356;52.380;9.820;2022-12-29T02:46:20;2.07;;;0.97;;
31786;SDS011;18356;52.380;9.820;2022-12-29T02:48:54;2.17;;;1.10;;
31786;SDS011;18356;52.380;9.820;2022-12-29T02:51:23;2.20;;;1.00;;
31786;SDS011;18356;52.380;9.820;2022-12-29T02:53:52;4.80;;;1.23;;
31786;SDS011;18356;52.380;9.820;2022-12-29T02:56:37;1.83;;;0.80;;
31786;SDS011;18356;52.380;9.820;2022-12-29T02:59:03;3.03;;;1.10;;
31786;SDS011;18356;52.380;9.820;2022-12-29T03:04:33;1.70;;;0.97;;
31786;SDS011;18356;52.380;9.820;2022-12-29T03:07:06;2.30;;;1.40;;
31786;SDS011;18356;52.380;9.820;2022-12-29T03:09:50;3.10;;;1.20;;
31786;SDS011;18356;52.380;9.820;2022-12-29T03:14:58;1.73;;;0.90;;
31786;SDS011;18356;52.380;9.820;2022-12-29T03:20:10;3.27;;;1.10;;
31786;SDS011;18356;52.380;9.820;2022-12-29T03:22:39;2.37;;;0.93;;
31786;SDS011;18356;52.380;9.820;2022-12-29T03:25:18;5.30;;;1.20;;
31786;SDS011;18356;52.380;9.820;2022-12-29T03:27:48;4.63;;;1.20;;
31786;SDS011;18356;52.380;9.820;2022-12-29T03:30:15;2.43;;;1.17;;
31786;SDS011;18356;52.380;9.820;2022-12-29T03:32:49;2.90;;;0.93;;
31786;SDS011;18356;52.380;9.820;2022-12-29T03:35:17;2.03;;;0.90;;
31786;SDS011;18356;52.380;9.820;2022-12-29T03:38:08;2.77;;;0.90;;
31786;SDS011;18356;52.380;9.820;2022-12-29T03:40:30;2.33;;;0.93;;
31786;SDS011;18356;52.380;9.820;2022-12-29T03:42:57;2.53;;;0.90;;
31786;SDS011;18356;52.380;9.820;2022-12-29T03:45:24;1.30;;;0.70;;
31786;SDS011;18356;52.380;9.820;2022-12-29T03:47:50;2.03;;;1.00;;
31786;SDS011;18356;52.380;9.820;2022-12-29T03:50:17;2.27;;;0.90;;
31786;SDS011;18356;52.380;9.820;2022-12-29T03:52:43;2.13;;;0.80;;
31786;SDS011;18356;52.380;9.820;2022-12-29T03:55:09;2.40;;;1.00;;
31786;SDS011;18356;52.380;9.820;2022-12-29T03:57:35;2.60;;;0.87;;
31786;SDS011;18356;52.380;9.820;2022-12-29T04:00:02;3.43;;;1.10;;
31786;SDS011;18356;52.380;9.820;2022-12-29T04:02:29;2.10;;;0.97;;
31786;SDS011;18356;52.380;9.820;2022-12-29T04:04:55;1.87;;;0.90;;
31786;SDS011;18356;52.380;9.820;2022-12-29T04:07:21;1.20;;;0.67;;
31786;SDS011;18356;52.380;9.820;2022-12-29T04:09:47;14.50;;;1.07;;
31786;SDS011;18356;52.380;9.820;2022-12-29T04:12:13;1.43;;;0.70;;
31786;SDS011;18356;52.380;9.820;2022-12-29T04:14:39;1.93;;;0.80;;
31786;SDS011;18356;52.380;9.820;2022-12-29T04:17:05;3.80;;;0.90;;
31786;SDS011;18356;52.380;9.820;2022-12-29T04:19:31;1.60;;;0.80;;
31786;SDS011;18356;52.380;9.820;2022-12-29T04:21:57;4.60;;;0.83;;
31786;SDS011;18356;52.380;9.820;2022-12-29T04:24:23;1.87;;;0.63;;
31786;SDS011;18356;52.380;9.820;2022-12-29T04:26:49;2.73;;;0.73;;
31786;SDS011;18356;52.380;9.820;2022-12-29T04:29:15;2.67;;;0.70;;
31786;SDS011;18356;52.380;9.820;2022-12-29T04:31:41;3.10;;;0.70;;
31786;SDS011;18356;52.380;9.820;2022-12-29T04:34:07;3.10;;;0.53;;
31786;SDS011;18356;52.380;9.820;2022-12-29T04:36:33;2.60;;;0.80;;
31786;SDS011;18356;52.380;9.820;2022-12-29T04:38:59;1.30;;;0.60;;
31786;SDS011;18356;52.380;9.820;2022-12-29T04:41:25;0.97;;;0.60;;
31786;SDS011;18356;52.380;9.820;2022-12-29T04:43:51;2.47;;;0.70;;
31786;SDS011;18356;52.380;9.820;2022-12-29T04:46:17;1.43;;;0.60;;
31786;SDS011;18356;52.380;9.820;2022-12-29T04:48:43;2.27;;;0.60;;
31786;SDS011;18356;52.380;9.820;2022-12-29T04:51:09;2.30;;;0.90;;
31786;SDS011;18356;52.380;9.820;2022-12-29T04:53:35;1.50;;;0.67;;
31786;SDS011;18356;52.380;9.820;2022-12-29T04:56:01;1.83;;;0.60;;
31786;SDS011;18356;52.380;9.820;2022-12-29T04:58:27;3.47;;;0.80;;
31786;SDS011;18356;52.380;9.820;2022-12-29T05:00:53;1.93;;;0.87;;
31786;SDS011;18356;52.380;9.820;2022-12-29T05:03:19;2.43;;;0.60;;
31786;SDS011;18356;52.380;9.820;2022-12-29T05:05:45;1.60;;;0.70;;
31786;SDS011;18356;52.380;9.820;2022-12-29T05:08:11;1.23;;;0.50;;
31786;SDS011;18356;52.380;9.820;2022-12-29T05:10:37;2.17;;;0.60;;
31786;SDS011;18356;52.380;9.820;2022-12-29T05:13:03;3.97;;;0.70;;
31786;SDS011;18356;52.380;9.820;2022-12-29T05:15:29;2.43;;;0.80;;
31786;SDS011;18356;52.380;9.820;2022-12-29T05:17:56;1.40;;;0.63;;
31786;SDS011;18356;52.380;9.820;2022-12-29T05:20:22;1.10;;;0.50;;
31786;SDS011;18356;52.380;9.820;2022-12-29T05:22:48;1.73;;;0.70;;
31786;SDS011;18356;52.380;9.820;2022-12-29T05:25:14;1.03;;;0.53;;
31786;SDS011;18356;52.380;9.820;2022-12-29T05:27:40;2.10;;;0.50;;
31786;SDS011;18356;52.380;9.820;2022-12-29T05:30:06;1.03;;;0.50;;
31786;SDS011;18356;52.380;9.820;2022-12-29T05:32:32;0.80;;;0.60;;
31786;SDS011;18356;52.380;9.820;2022-12-29T05:34:58;1.80;;;0.90;;
31786;SDS011;18356;52.380;9.820;2022-12-29T05:37:24;3.13;;;0.90;;
31786;SDS011;18356;52.380;9.820;2022-12-29T05:39:50;2.00;;;0.60;;
31786;SDS011;18356;52.380;9.820;2022-12-29T05:42:16;1.93;;;0.70;;
31786;SDS011;18356;52.380;9.820;2022-12-29T05:44:42;3.37;;;2.93;;
31786;SDS011;18356;52.380;9.820;2022-12-29T05:47:08;1.90;;;0.80;;
31786;SDS011;18356;52.380;9.820;2022-12-29T05:49:34;2.40;;;0.97;;
31786;SDS011;18356;52.380;9.820;2022-12-29T05:52:00;3.43;;;0.73;;
31786;SDS011;18356;52.380;9.820;2022-12-29T05:54:26;4.17;;;1.40;;
31786;SDS011;18356;52.380;9.820;2022-12-29T05:56:52;1.20;;;0.70;;
31786;SDS011;18356;52.380;9.820;2022-12-29T05:59:18;1.90;;;0.60;;
31786;SDS011;18356;52.380;9.820;2022-12-29T06:01:44;4.27;;;0.90;;
31786;SDS011;18356;52.380;9.820;2022-12-29T06:04:10;2.03;;;0.70;;
31786;SDS011;18356;52.380;9.820;2022-12-29T06:06:36;3.63;;;0.67;;
31786;SDS011;18356;52.380;9.820;2022-12-29T06:09:02;1.47;;;0.50;;
31786;SDS011;18356;52.380;9.820;2022-12-29T06:11:28;2.07;;;0.70;;
31786;SDS011;18356;52.380;9.820;2022-12-29T06:13:54;2.60;;;1.10;;
31786;SDS011;18356;52.380;9.820;2022-12-29T06:16:20;2.23;;;0.70;;
31786;SDS011;18356;52.380;9.820;2022-12-29T06:18:46;3.60;;;0.70;;
31786;SDS011;18356;52.380;9.820;2022-12-29T06:21:12;1.07;;;0.60;;
31786;SDS011;18356;52.380;9.820;2022-12-29T06:23:39;2.30;;;0.60;;
31786;SDS011;18356;52.380;9.820;2022-12-29T06:26:05;2.67;;;0.70;;
31786;SDS011;18356;52.380;9.820;2022-12-29T06:28:31;2.43;;;0.70;;
31786;SDS011;18356;52.380;9.820;2022-12-29T06:30:57;2.07;;;0.63;;
31786;SDS011;18356;52.380;9.820;2022-12-29T06:33:23;1.60;;;0.50;;
31786;SDS011;18356;52.380;9.820;2022-12-29T06:35:49;3.13;;;1.00;;
31786;SDS011;18356;52.380;9.820;2022-12-29T06:38:15;3.40;;;1.00;;
31786;SDS011;18356;52.380;9.820;2022-12-29T06:40:41;2.20;;;0.77;;
31786;SDS011;18356;52.380;9.820;2022-12-29T06:43:09;1.10;;;0.77;;
31786;SDS011;18356;52.380;9.820;2022-12-29T06:45:37;1.60;;;0.63;;
31786;SDS011;18356;52.380;9.820;2022-12-29T06:48:03;2.13;;;0.73;;
31786;SDS011;18356;52.380;9.820;2022-12-29T06:50:29;2.70;;;1.90;;
31786;SDS011;18356;52.380;9.820;2022-12-29T06:52:55;1.83;;;0.83;;
31786;SDS011;18356;52.380;9.820;2022-12-29T06:55:21;2.30;;;0.73;;
31786;SDS011;18356;52.380;9.820;2022-12-29T06:57:47;1.30;;;0.80;;
31786;SDS011;18356;52.380;9.820;2022-12-29T07:00:13;2.30;;;0.70;;
31786;SDS011;18356;52.380;9.820;2022-12-29T07:02:39;1.50;;;0.60;;
31786;SDS011;18356;52.380;9.820;2022-12-29T07:05:05;1.43;;;0.57;;
31786;SDS011;18356;52.380;9.820;2022-12-29T07:07:33;1.57;;;0.70;;
31786;SDS011;18356;52.380;9.820;2022-12-29T07:09:59;2.80;;;0.57;;
31786;SDS011;18356;52.380;9.820;2022-12-29T07:12:25;4.90;;;1.03;;
31786;SDS011;18356;52.380;9.820;2022-12-29T07:14:51;1.10;;;0.40;;
31786;SDS011;18356;52.380;9.820;2022-12-29T07:17:17;1.60;;;0.40;;
31786;SDS011;18356;52.380;9.820;2022-12-29T07:19:43;1.47;;;0.50;;
31786;SDS011;18356;52.380;9.820;2022-12-29T07:22:09;0.90;;;0.40;;
31786;SDS011;18356;52.380;9.820;2022-12-29T07:24:35;1.27;;;0.50;;
31786;SDS011;18356;52.380;9.820;2022-12-29T07:27:02;1.90;;;0.50;;
31786;SDS011;18356;52.380;9.820;2022-12-29T07:29:28;1.57;;;0.50;;
31786;SDS011;18356;52.380;9.820;2022-12-29T07:31:54;1.70;;;0.30;;
31786;SDS011;18356;52.380;9.820;2022-12-29T07:34:20;8.23;;;0.60;;
31786;SDS011;18356;52.380;9.820;2022-12-29T07:36:46;7.03;;;1.00;;
31786;SDS011;18356;52.380;9.820;2022-12-29T07:39:12;10.37;;;0.93;;
31786;SDS011;18356;52.380;9.820;2022-12-29T07:41:38;3.87;;;1.17;;
31786;SDS011;18356;52.380;9.820;2022-12-29T07:44:04;3.67;;;1.00;;
31786;SDS011;18356;52.380;9.820;2022-12-29T07:46:30;1.97;;;0.40;;
31786;SDS011;18356;52.380;9.820;2022-12-29T07:48:56;3.50;;;0.40;;
31786;SDS011;18356;52.380;9.820;2022-12-29T07:51:22;3.60;;;0.60;;
31786;SDS011;18356;52.380;9.820;2022-12-29T07:53:48;3.60;;;0.80;;
31786;SDS011;18356;52.380;9.820;2022-12-29T07:56:14;2.23;;;0.60;;
31786;SDS011;18356;52.380;9.820;2022-12-29T07:58:41;2.30;;;0.50;;
31786;SDS011;18356;52.380;9.820;2022-12-29T08:01:07;2.33;;;0.60;;
31786;SDS011;18356;52.380;9.820;2022-12-29T08:03:33;2.50;;;0.50;;
31786;SDS011;18356;52.380;9.820;2022-12-29T08:05:59;2.60;;;0.50;;
31786;SDS011;18356;52.380;9.820;2022-12-29T08:08:25;3.13;;;0.60;;
31786;SDS011;18356;52.380;9.820;2022-12-29T08:10:51;4.03;;;0.70;;
31786;SDS011;18356;52.380;9.820;2022-12-29T08:13:17;2.20;;;0.50;;
31786;SDS011;18356;52.380;9.820;2022-12-29T08:15:43;2.87;;;0.60;;
31786;SDS011;18356;52.380;9.820;2022-12-29T08:18:09;2.27;;;0.70;;
31786;SDS011;18356;52.380;9.820;2022-12-29T08:20:35;4.33;;;0.57;;
31786;SDS011;18356;52.380;9.820;2022-12-29T08:23:01;2.27;;;0.50;;
31786;SDS011;18356;52.380;9.820;2022-12-29T08:25:27;3.00;;;0.70;;
31786;SDS011;18356;52.380;9.820;2022-12-29T08:27:53;1.77;;;0.50;;
31786;SDS011;18356;52.380;9.820;2022-12-29T08:30:19;2.23;;;0.70;;
31786;SDS011;18356;52.380;9.820;2022-12-29T08:32:45;1.83;;;0.70;;
31786;SDS011;18356;52.380;9.820;2022-12-29T08:35:11;2.53;;;0.70;;
31786;SDS011;18356;52.380;9.820;2022-12-29T08:37:37;0.93;;;0.50;;
31786;SDS011;18356;52.380;9.820;2022-12-29T08:40:04;6.20;;;2.20;;
31786;SDS011;18356;52.380;9.820;2022-12-29T08:42:30;7.37;;;0.87;;
31786;SDS011;18356;52.380;9.820;2022-12-29T08:44:57;3.50;;;0.70;;
31786;SDS011;18356;52.380;9.820;2022-12-29T08:47:23;7.20;;;1.10;;
31786;SDS011;18356;52.380;9.820;2022-12-29T08:49:50;11.73;;;1.40;;
31786;SDS011;18356;52.380;9.820;2022-12-29T08:52:17;12.00;;;3.70;;
31786;SDS011;18356;52.380;9.820;2022-12-29T08:54:43;4.97;;;1.20;;
31786;SDS011;18356;52.380;9.820;2022-12-29T08:57:09;6.00;;;1.30;;
31786;SDS011;18356;52.380;9.820;2022-12-29T08:59:35;7.33;;;1.20;;
31786;SDS011;18356;52.380;9.820;2022-12-29T09:02:01;8.27;;;1.20;;
31786;SDS011;18356;52.380;9.820;2022-12-29T09:04:27;5.13;;;1.10;;
31786;SDS011;18356;52.380;9.820;2022-12-29T09:06:53;8.60;;;1.20;;
31786;SDS011;18356;52.380;9.820;2022-12-29T09:09:20;5.00;;;1.20;;
31786;SDS011;18356;52.380;9.820;2022-12-29T09:11:46;9.63;;;1.30;;
31786;SDS011;18356;52.380;9.820;2022-12-29T09:14:12;9.10;;;1.70;;
31786;SDS011;18356;52.380;9.820;2022-12-29T09:16:38;6.00;;;1.30;;
31786;SDS011;18356;52.380;9.820;2022-12-29T09:19:04;9.43;;;1.83;;
31786;SDS011;18356;52.380;9.820;2022-12-29T09:21:30;8.80;;;1.80;;
31786;SDS011;18356;52.380;9.820;2022-12-29T09:23:56;5.97;;;1.40;;
31786;SDS011;18356;52.380;9.820;2022-12-29T09:26:22;6.20;;;1.60;;
31786;SDS011;18356;52.380;9.820;2022-12-29T09:28:48;3.57;;;1.00;;
31786;SDS011;18356;52.380;9.820;2022-12-29T09:31:14;5.10;;;1.10;;
31786;SDS011;18356;52.380;9.820;2022-12-29T09:33:40;6.23;;;1.70;;
31786;SDS011;18356;52.380;9.820;2022-12-29T09:36:06;3.00;;;1.17;;
31786;SDS011;18356;52.380;9.820;2022-12-29T09:38:32;4.30;;;1.40;;
31786;SDS011;18356;52.380;9.820;2022-12-29T09:41:05;8.57;;;1.77;;
31786;SDS011;18356;52.380;9.820;2022-12-29T09:46:17;3.47;;;1.17;;
31786;SDS011;18356;52.380;9.820;2022-12-29T09:48:45;5.10;;;0.97;;
31786;SDS011;18356;52.380;9.820;2022-12-29T09:51:14;4.37;;;1.20;;
31786;SDS011;18356;52.380;9.820;2022-12-29T09:53:41;1.80;;;0.83;;
31786;SDS011;18356;52.380;9.820;2022-12-29T09:56:16;5.33;;;1.30;;
31786;SDS011;18356;52.380;9.820;2022-12-29T10:04:20;3.40;;;0.80;;
31786;SDS011;18356;52.380;9.820;2022-12-29T10:07:08;6.77;;;1.13;;
31786;SDS011;18356;52.380;9.820;2022-12-29T10:17:13;2.93;;;0.90;;
31786;SDS011;18356;52.380;9.820;2022-12-29T10:24:44;5.13;;;1.00;;
31786;SDS011;18356;52.380;9.820;2022-12-29T10:27:12;3.90;;;1.23;;
31786;SDS011;18356;52.380;9.820;2022-12-29T10:29:42;4.27;;;1.03;;
31786;SDS011;18356;52.380;9.820;2022-12-29T10:34:42;3.17;;;0.97;;
31786;SDS011;18356;52.380;9.820;2022-12-29T10:37:21;2.63;;;0.97;;
31786;SDS011;18356;52.380;9.820;2022-12-29T10:39:53;4.63;;;1.10;;
31786;SDS011;18356;52.380;9.820;2022-12-29T10:42:22;3.50;;;1.00;;
31786;SDS011;18356;52.380;9.820;2022-12-29T10:44:49;5.03;;;1.30;;
31786;SDS011;18356;52.380;9.820;2022-12-29T10:47:16;4.13;;;1.10;;
31786;SDS011;18356;52.380;9.820;2022-12-29T10:49:45;5.03;;;0.90;;
31786;SDS011;18356;52.380;9.820;2022-12-29T10:52:11;3.83;;;0.93;;
31786;SDS011;18356;52.380;9.820;2022-12-29T10:57:05;6.93;;;1.53;;
31786;SDS011;18356;52.380;9.820;2022-12-29T10:59:35;3.20;;;1.00;;
31786;SDS011;18356;52.380;9.820;2022-12-29T11:07:16;4.53;;;1.10;;
31786;SDS011;18356;52.380;9.820;2022-12-29T11:09:43;4.27;;;1.40;;
31786;SDS011;18356;52.380;9.820;2022-12-29T11:14:59;5.07;;;1.40;;
31786;SDS011;18356;52.380;9.820;2022-12-29T11:17:26;8.10;;;1.60;;
31786;SDS011;18356;52.380;9.820;2022-12-29T11:19:52;5.77;;;1.07;;
31786;SDS011;18356;52.380;9.820;2022-12-29T11:22:23;6.27;;;1.50;;
31786;SDS011;18356;52.380;9.820;2022-12-29T11:24:51;6.97;;;2.20;;
31786;SDS011;18356;52.380;9.820;2022-12-29T11:27:21;4.33;;;1.70;;
31786;SDS011;18356;52.380;9.820;2022-12-29T11:29:49;8.50;;;1.90;;
31786;SDS011;18356;52.380;9.820;2022-12-29T11:32:22;5.13;;;1.50;;
31786;SDS011;18356;52.380;9.820;2022-12-29T11:34:49;7.33;;;2.30;;
31786;SDS011;18356;52.380;9.820;2022-12-29T11:42:16;4.57;;;1.30;;
31786;SDS011;18356;52.380;9.820;2022-12-29T11:44:44;5.20;;;1.50;;
31786;SDS011;18356;52.380;9.820;2022-12-29T11:47:13;5.10;;;1.27;;
31786;SDS011;18356;52.380;9.820;2022-12-29T11:49:39;6.00;;;1.60;;
31786;SDS011;18356;52.380;9.820;2022-12-29T11:52:06;6.47;;;1.60;;
31786;SDS011;18356;52.380;9.820;2022-12-29T11:54:33;4.03;;;1.07;;
31786;SDS011;18356;52.380;9.820;2022-12-29T11:57:14;6.30;;;1.17;;
31786;SDS011;18356;52.380;9.820;2022-12-29T11:59:42;9.87;;;1.80;;
31786;SDS011;18356;52.380;9.820;2022-12-29T12:04:40;6.23;;;1.47;;
31786;SDS011;18356;52.380;9.820;2022-12-29T12:09:51;5.50;;;1.10;;
31786;SDS011;18356;52.380;9.820;2022-12-29T12:12:37;7.33;;;2.13;;
31786;SDS011;18356;52.380;9.820;2022-12-29T12:15:05;6.50;;;1.10;;
31786;SDS011;18356;52.380;9.820;2022-12-29T12:22:32;6.10;;;1.20;;
31786;SDS011;18356;52.380;9.820;2022-12-29T12:25:08;6.17;;;0.83;;
31786;SDS011;18356;52.380;9.820;2022-12-29T12:27:38;7.50;;;1.30;;
31786;SDS011;18356;52.380;9.820;2022-12-29T12:35:11;6.73;;;1.23;;
31786;SDS011;18356;52.380;9.820;2022-12-29T12:37:47;7.17;;;1.40;;
31786;SDS011;18356;52.380;9.820;2022-12-29T13:00:26;6.13;;;1.17;;
31786;SDS011;18356;52.380;9.820;2022-12-29T13:08:00;5.37;;;1.73;;
31786;SDS011;18356;52.380;9.820;2022-12-29T13:18:37;5.57;;;1.20;;
31786;SDS011;18356;52.380;9.820;2022-12-29T13:23:38;6.93;;;1.37;;
31786;SDS011;18356;52.380;9.820;2022-12-29T13:29:23;7.10;;;1.30;;
31786;SDS011;18356;52.380;9.820;2022-12-29T13:31:39;8.00;;;1.23;;
31786;SDS011;18356;52.380;9.820;2022-12-29T13:34:15;7.80;;;1.60;;
31786;SDS011;18356;52.380;9.820;2022-12-29T13:36:45;5.40;;;1.47;;
31786;SDS011;18356;52.380;9.820;2022-12-29T13:39:18;4.13;;;1.10;;
31786;SDS011;18356;52.380;9.820;2022-12-29T13:44:15;5.63;;;1.10;;
31786;SDS011;18356;52.380;9.820;2022-12-29T13:46:43;5.47;;;1.53;;
31786;SDS011;18356;52.380;9.820;2022-12-29T13:49:20;6.67;;;1.70;;
31786;SDS011;18356;52.380;9.820;2022-12-29T13:56:43;8.17;;;1.50;;
31786;SDS011;18356;52.380;9.820;2022-12-29T13:59:15;8.70;;;1.30;;
31786;SDS011;18356;52.380;9.820;2022-12-29T14:01:45;6.20;;;1.10;;
31786;SDS011;18356;52.380;9.820;2022-12-29T14:04:13;7.17;;;1.20;;
31786;SDS011;18356;52.380;9.820;2022-12-29T14:06:39;7.03;;;1.63;;
31786;SDS011;18356;52.380;9.820;2022-12-29T14:11:51;6.20;;;1.30;;
31786;SDS011;18356;52.380;9.820;2022-12-29T14:14:19;5.10;;;1.27;;
31786;SDS011;18356;52.380;9.820;2022-12-29T14:16:46;6.43;;;1.40;;
31786;SDS011;18356;52.380;9.820;2022-12-29T14:19:21;7.00;;;1.63;;
31786;SDS011;18356;52.380;9.820;2022-12-29T14:21:55;9.43;;;1.67;;
31786;SDS011;18356;52.380;9.820;2022-12-29T14:34:47;7.00;;;2.03;;
31786;SDS011;18356;52.380;9.820;2022-12-29T14:39:48;6.77;;;1.63;;
31786;SDS011;18356;52.380;9.820;2022-12-29T14:42:15;8.97;;;2.33;;
31786;SDS011;18356;52.380;9.820;2022-12-29T14:47:23;7.17;;;1.83;;
31786;SDS011;18356;52.380;9.820;2022-12-29T14:49:52;7.23;;;1.53;;
31786;SDS011;18356;52.380;9.820;2022-12-29T14:52:20;6.90;;;1.87;;
31786;SDS011;18356;52.380;9.820;2022-12-29T14:54:48;9.07;;;1.90;;
31786;SDS011;18356;52.380;9.820;2022-12-29T14:59:47;6.13;;;1.53;;
31786;SDS011;18356;52.380;9.820;2022-12-29T15:02:18;8.60;;;1.77;;
31786;SDS011;18356;52.380;9.820;2022-12-29T15:04:45;9.13;;;2.23;;
31786;SDS011;18356;52.380;9.820;2022-12-29T15:07:12;6.33;;;2.10;;
31786;SDS011;18356;52.380;9.820;2022-12-29T15:09:41;10.57;;;3.23;;
31786;SDS011;18356;52.380;9.820;2022-12-29T15:14:54;7.43;;;1.90;;
31786;SDS011;18356;52.380;9.820;2022-12-29T15:17:27;7.37;;;2.10;;
31786;SDS011;18356;52.380;9.820;2022-12-29T15:19:54;5.47;;;1.70;;
31786;SDS011;18356;52.380;9.820;2022-12-29T15:22:20;6.20;;;1.40;;
31786;SDS011;18356;52.380;9.820;2022-12-29T15:24:47;6.83;;;1.70;;
31786;SDS011;18356;52.380;9.820;2022-12-29T15:27:16;10.63;;;1.70;;
31786;SDS011;18356;52.380;9.820;2022-12-29T15:29:44;7.47;;;1.93;;
31786;SDS011;18356;52.380;9.820;2022-12-29T15:32:19;8.10;;;2.23;;
31786;SDS011;18356;52.380;9.820;2022-12-29T15:34:46;7.67;;;1.70;;
31786;SDS011;18356;52.380;9.820;2022-12-29T15:39:48;13.33;;;3.23;;
31786;SDS011;18356;52.380;9.820;2022-12-29T15:44:49;9.67;;;2.47;;
31786;SDS011;18356;52.380;9.820;2022-12-29T15:47:17;5.87;;;2.40;;
31786;SDS011;18356;52.380;9.820;2022-12-29T15:49:48;7.93;;;1.83;;
31786;SDS011;18356;52.380;9.820;2022-12-29T15:52:19;8.33;;;2.00;;
31786;SDS011;18356;52.380;9.820;2022-12-29T15:54:45;9.50;;;2.37;;
31786;SDS011;18356;52.380;9.820;2022-12-29T15:57:28;6.80;;;2.20;;
31786;SDS011;18356;52.380;9.820;2022-12-29T15:59:54;6.97;;;2.30;;
31786;SDS011;18356;52.380;9.820;2022-12-29T16:02:23;9.80;;;3.10;;
31786;SDS011;18356;52.380;9.820;2022-12-29T16:04:50;11.40;;;1.90;;
31786;SDS011;18356;52.380;9.820;2022-12-29T16:09:55;13.80;;;2.83;;
31786;SDS011;18356;52.380;9.820;2022-12-29T16:12:22;9.10;;;2.03;;
31786;SDS011;18356;52.380;9.820;2022-12-29T16:15:02;10.57;;;2.33;;
31786;SDS011;18356;52.380;9.820;2022-12-29T16:17:29;11.47;;;1.90;;
31786;SDS011;18356;52.380;9.820;2022-12-29T16:19:57;13.67;;;3.93;;
31786;SDS011;18356;52.380;9.820;2022-12-29T16:22:26;12.13;;;4.23;;
31786;SDS011;18356;52.380;9.820;2022-12-29T16:24:54;11.43;;;3.00;;
31786;SDS011;18356;52.380;9.820;2022-12-29T16:27:21;7.60;;;2.00;;
31786;SDS011;18356;52.380;9.820;2022-12-29T16:29:49;11.57;;;2.83;;
31786;SDS011;18356;52.380;9.820;2022-12-29T16:32:30;9.00;;;2.03;;
31786;SDS011;18356;52.380;9.820;2022-12-29T16:37:33;9.07;;;2.60;;
31786;SDS011;18356;52.380;9.820;2022-12-29T16:47:42;9.53;;;3.17;;
31786;SDS011;18356;52.380;9.820;2022-12-29T16:50:12;11.03;;;3.00;;
31786;SDS011;18356;52.380;9.820;2022-12-29T16:52:38;9.63;;;3.30;;
31786;SDS011;18356;52.380;9.820;2022-12-29T16:55:04;11.37;;;3.23;;
31786;SDS011;18356;52.380;9.820;2022-12-29T16:57:34;13.07;;;3.00;;
31786;SDS011;18356;52.380;9.820;2022-12-29T17:00:05;7.60;;;2.27;;
31786;SDS011;18356;52.380;9.820;2022-12-29T17:02:33;9.33;;;2.70;;
31786;SDS011;18356;52.380;9.820;2022-12-29T17:05:12;9.53;;;2.10;;
31786;SDS011;18356;52.380;9.820;2022-12-29T17:07:38;6.73;;;1.87;;
31786;SDS011;18356;52.380;9.820;2022-12-29T17:10:05;8.93;;;2.00;;
31786;SDS011;18356;52.380;9.820;2022-12-29T17:12:31;10.97;;;1.73;;
31786;SDS011;18356;52.380;9.820;2022-12-29T17:15:02;9.00;;;2.07;;
31786;SDS011;18356;52.380;9.820;2022-12-29T17:17:46;10.43;;;1.80;;
31786;SDS011;18356;52.380;9.820;2022-12-29T17:20:14;8.33;;;1.80;;
31786;SDS011;18356;52.380;9.820;2022-12-29T17:22:41;9.80;;;2.40;;
31786;SDS011;18356;52.380;9.820;2022-12-29T17:25:10;6.23;;;2.13;;
31786;SDS011;18356;52.380;9.820;2022-12-29T17:27:37;8.43;;;2.00;;
31786;SDS011;18356;52.380;9.820;2022-12-29T17:30:10;6.90;;;1.70;;
31786;SDS011;18356;52.380;9.820;2022-12-29T17:32:37;8.57;;;2.20;;
31786;SDS011;18356;52.380;9.820;2022-12-29T17:35:04;6.70;;;2.30;;
31786;SDS011;18356;52.380;9.820;2022-12-29T17:37:34;7.37;;;1.77;;
31786;SDS011;18356;52.380;9.820;2022-12-29T17:40:01;9.33;;;1.70;;
31786;SDS011;18356;52.380;9.820;2022-12-29T17:42:27;9.37;;;1.87;;
31786;SDS011;18356;52.380;9.820;2022-12-29T17:44:56;11.13;;;2.40;;
31786;SDS011;18356;52.380;9.820;2022-12-29T17:47:22;8.40;;;1.80;;